Andover, Ohio
Current Conditions -  °F | °C
As of 2:57 AM on Friday 24 Oct 2014 (Local Time) from KHZY Reporting Station
Haze Haze  
Wind Chill: 38°   Ceiling: Unl
Heat Index: 38°   Visibility: 2mi
Dew Point: 36°   Wind: 0mph
Humidity: 93%   Direction: NA
Pressure: 30.09"   Gusts: NA
Location:  41.61°N, 80.57°W
Report Text: KHZY 240657Z AUTO 00000KT 2SM BR CLR 03/02 A3009 RMK AO2 T00330022
Loading
Personal Weather Stations






























Interactive Weather Map New forecast layout! Learn more

10-Day Weather Forecast

Advertisements
Track Severe Weather on mobile